Time;durP1;ratioP1;P1;durP2;ratioP2;P2;SDS_P1;SDS_P2;PMS_P1;PMS_P2;Temp;Humidity;BMP_temperature;BMP_pressure;BME280_temperature;BME280_humidity;BME280_pressure;Samples;Min_cycle;Max_cycle;Signal;HPM_P1;HPM_P2
2022/12/24 00:00:57;;;;;;;7.67;1.60;;;;;;;11.55;83.10;98290.72;4954247;28;20876;-55
2022/12/24 00:03:24;;;;;;;10.60;1.63;;;;;;;11.49;85.39;98285.16;4968094;28;20234;-55
2022/12/24 00:05:50;;;;;;;8.40;1.60;;;;;;;11.55;82.36;98265.41;4967859;28;20707;-52
2022/12/24 00:08:17;;;;;;;9.73;1.70;;;;;;;11.50;84.54;98286.81;4967231;28;20702;-53
2022/12/24 00:10:44;;;;;;;5.80;1.60;;;;;;;11.44;85.58;98278.81;4966726;28;20246;-54
2022/12/24 00:13:10;;;;;;;10.27;1.70;;;;;;;11.44;86.33;98276.19;4970097;28;20242;-53
2022/12/24 00:15:37;;;;;;;10.53;1.67;;;;;;;11.39;85.38;98278.50;4967883;28;20275;-55
2022/12/24 00:18:05;;;;;;;6.83;1.30;;;;;;;11.38;86.93;98261.97;4974267;28;20287;-55
2022/12/24 00:20:31;;;;;;;11.40;2.27;;;;;;;11.34;86.67;98269.34;4969329;28;20219;-55
2022/12/24 00:22:58;;;;;;;8.90;1.37;;;;;;;11.40;85.98;98280.13;4963532;28;20240;-53
2022/12/24 00:25:25;;;;;;;5.63;1.53;;;;;;;11.40;84.56;98274.91;4970121;28;20232;-55
2022/12/24 00:27:51;;;;;;;11.07;2.20;;;;;;;11.39;85.49;98273.28;4962715;28;20238;-53
2022/12/24 00:30:18;;;;;;;9.43;1.70;;;;;;;11.40;84.83;98267.06;4963120;28;20239;-54
2022/12/24 00:32:44;;;;;;;8.03;2.00;;;;;;;11.40;84.95;98277.50;4969863;28;20235;-55
2022/12/24 00:35:12;;;;;;;8.87;1.80;;;;;;;11.32;85.30;98281.75;4964176;28;20242;-54
2022/12/24 00:37:39;;;;;;;11.13;1.50;;;;;;;11.33;84.50;98278.16;4961519;28;20643;-54
2022/12/24 00:40:07;;;;;;;11.40;2.07;;;;;;;11.34;84.14;98276.34;4967898;28;20231;-53
2022/12/24 00:42:33;;;;;;;10.83;1.90;;;;;;;11.36;83.35;98288.28;4958266;28;20716;-53
2022/12/24 00:45:00;;;;;;;12.13;2.10;;;;;;;11.36;84.17;98298.75;4964840;28;20231;-53
2022/12/24 00:47:27;;;;;;;9.73;1.73;;;;;;;11.39;83.49;98292.38;4958468;28;20714;-54
2022/12/24 00:49:54;;;;;;;12.87;2.77;;;;;;;11.48;80.78;98314.91;4964419;28;20644;-55
2022/12/24 00:52:22;;;;;;;12.83;2.43;;;;;;;11.61;79.00;98314.41;4969309;28;20635;-54
2022/12/24 00:54:48;;;;;;;9.53;1.70;;;;;;;11.69;80.02;98318.81;4964061;28;20226;-55
2022/12/24 00:57:15;;;;;;;6.23;1.90;;;;;;;11.62;81.96;98323.06;4968158;28;20236;-52
2022/12/24 00:59:41;;;;;;;13.93;1.97;;;;;;;11.61;79.54;98332.72;4966784;28;20608;-55
2022/12/24 01:02:08;;;;;;;14.07;2.50;;;;;;;11.64;80.44;98334.16;4969965;28;20253;-53
2022/12/24 01:07:19;;;;;;;12.90;1.80;;;;;;;11.59;80.65;98334.69;4967107;28;20235;-53
2022/12/24 01:09:47;;;;;;;11.83;2.13;;;;;;;11.49;81.93;98334.84;4968424;28;20299;-53
2022/12/24 01:12:13;;;;;;;7.53;1.80;;;;;;;11.43;82.66;98339.91;4960684;28;20235;-55
2022/12/24 01:14:40;;;;;;;11.90;2.17;;;;;;;11.41;82.27;98355.72;4961977;28;20767;-56
2022/12/24 01:17:06;;;;;;;8.33;1.57;;;;;;;11.43;82.37;98368.66;4968711;28;20236;-55
2022/12/24 01:19:33;;;;;;;8.57;2.13;;;;;;;11.45;80.95;98369.31;4967248;28;20296;-56
2022/12/24 01:22:00;;;;;;;10.77;2.30;;;;;;;11.72;78.50;98373.38;4970409;28;20596;-54
2022/12/24 01:24:27;;;;;;;15.43;2.20;;;;;;;11.81;77.48;98374.19;4962947;28;20235;-54
2022/12/24 01:26:55;;;;;;;9.50;1.80;;;;;;;11.79;78.75;98386.59;4968061;28;20239;-56
2022/12/24 01:29:21;;;;;;;11.50;2.43;;;;;;;11.74;79.57;98367.97;4968595;28;20235;-56
2022/12/24 01:31:48;;;;;;;6.67;2.07;;;;;;;11.63;80.22;98367.34;4965137;28;20238;-55
2022/12/24 01:34:14;;;;;;;9.57;2.13;;;;;;;11.54;81.20;98360.50;4967322;28;20230;-53
2022/12/24 01:36:41;;;;;;;11.07;1.77;;;;;;;11.41;83.04;98374.03;4959809;28;20233;-54
2022/12/24 01:39:07;;;;;;;14.17;2.03;;;;;;;11.36;83.05;98387.59;4970791;28;20322;-55
2022/12/24 01:44:25;;;;;;;6.50;1.80;;;;;;;11.39;82.07;98396.91;4963572;28;20270;-55
2022/12/24 01:46:54;;;;;;;12.60;2.17;;;;;;;11.30;84.04;98403.09;4963613;28;20285;-55
2022/12/24 01:49:21;;;;;;;13.80;2.17;;;;;;;11.30;83.79;98426.59;4963422;28;20257;-55
2022/12/24 01:51:52;;;;;;;14.93;2.40;;;;;;;11.19;84.97;98433.75;4964924;28;20245;-55
2022/12/24 01:54:23;;;;;;;14.37;2.27;;;;;;;11.06;86.88;98434.22;4961478;28;20231;-55
2022/12/24 01:56:54;;;;;;;11.43;2.30;;;;;;;10.97;88.67;98427.34;4966803;28;20229;-55
2022/12/24 01:59:22;;;;;;;10.57;1.77;;;;;;;10.88;88.63;98433.50;4968782;28;20243;-55
2022/12/24 02:01:50;;;;;;;16.13;2.57;;;;;;;10.85;89.28;98433.81;4962401;28;20238;-55
2022/12/24 02:04:23;;;;;;;19.83;2.23;;;;;;;10.73;95.22;98435.91;4970214;28;20233;-55
2022/12/24 02:06:50;;;;;;;14.07;2.93;;;;;;;10.66;96.14;98425.25;4962898;28;20261;-55
2022/12/24 02:09:17;;;;;;;16.83;3.20;;;;;;;10.57;97.74;98419.19;4964619;28;20235;-55
2022/12/24 02:11:44;;;;;;;15.30;3.17;;;;;;;10.48;99.03;98426.19;4961956;28;20717;-55
2022/12/24 02:14:12;;;;;;;13.37;1.97;;;;;;;10.43;99.72;98427.59;4968112;28;20239;-55
2022/12/24 02:16:48;;;;;;;12.43;2.37;;;;;;;10.41;98.14;98434.75;4960098;28;20703;-55
2022/12/24 02:22:14;;;;;;;14.10;2.67;;;;;;;10.26;100.00;98417.03;4905861;29;20916;-53
2022/12/24 02:24:56;;;;;;;14.10;2.37;;;;;;;10.22;100.00;98418.31;4901557;29;20676;-54
2022/12/24 02:27:37;;;;;;;11.63;2.20;;;;;;;10.22;100.00;98414.91;4910874;29;20232;-54
2022/12/24 02:30:10;;;;;;;14.57;2.53;;;;;;;10.19;100.00;98429.03;4907420;29;20217;-53
2022/12/24 02:32:49;;;;;;;9.57;1.73;;;;;;;10.16;100.00;98430.19;4908162;29;20229;-53
2022/12/24 02:35:21;;;;;;;10.40;1.80;;;;;;;10.18;100.00;98435.22;4904764;29;20285;-54
2022/12/24 02:37:52;;;;;;;16.83;2.20;;;;;;;10.19;100.00;98431.66;4910274;29;20258;-53
2022/12/24 02:40:23;;;;;;;11.03;2.17;;;;;;;10.21;98.71;98423.69;4911991;29;20249;-53
2022/12/24 02:42:54;;;;;;;11.87;1.90;;;;;;;10.25;99.31;98415.38;4912502;29;20240;-55
2022/12/24 02:45:27;;;;;;;14.13;2.77;;;;;;;10.23;99.01;98413.94;4910213;29;20236;-54
2022/12/24 02:47:55;;;;;;;16.57;1.90;;;;;;;10.29;96.48;98418.53;4906229;29;20326;-55
2022/12/24 02:50:22;;;;;;;13.87;2.30;;;;;;;10.40;92.88;98422.69;4904649;29;20292;-54
2022/12/24 02:52:49;;;;;;;15.00;2.27;;;;;;;10.37;96.63;98402.91;4906181;29;20232;-53
2022/12/24 02:55:19;;;;;;;11.13;1.80;;;;;;;10.37;96.89;98410.75;4919469;29;20243;-55
2022/12/24 02:58:03;;;;;;;11.27;2.03;;;;;;;10.33;98.09;98412.84;4912810;29;20239;-53
2022/12/24 03:00:43;;;;;;;12.63;2.00;;;;;;;10.32;97.04;98419.03;4913373;29;20237;-53
2022/12/24 03:03:24;;;;;;;12.43;2.47;;;;;;;10.36;96.43;98416.09;4906095;29;20228;-54
2022/12/24 03:06:00;;;;;;;13.37;2.50;;;;;;;10.37;95.00;98413.34;4912816;29;20236;-55
2022/12/24 03:08:38;;;;;;;18.03;2.43;;;;;;;10.39;94.56;98424.50;4912746;29;20324;-55
2022/12/24 03:11:10;;;;;;;14.80;2.10;;;;;;;10.45;94.24;98436.91;4914384;29;20235;-55
2022/12/24 03:13:37;;;;;;;11.23;2.00;;;;;;;10.45;93.96;98454.34;4910449;29;20240;-53
2022/12/24 03:16:07;;;;;;;11.90;1.90;;;;;;;10.47;93.39;98453.25;4915539;29;20245;-53
2022/12/24 03:18:38;;;;;;;11.93;1.80;;;;;;;10.46;94.52;98445.56;4911989;29;20262;-54
2022/12/24 03:21:10;;;;;;;14.07;2.47;;;;;;;10.45;92.65;98446.53;4909765;29;20100;-55
2022/12/24 03:23:37;;;;;;;16.30;2.60;;;;;;;10.46;93.94;98433.34;4910446;29;20377;-53
2022/12/24 03:26:07;;;;;;;10.27;2.27;;;;;;;10.48;91.66;98449.66;4914591;29;20236;-55
2022/12/24 03:28:36;;;;;;;12.40;2.57;;;;;;;10.54;92.03;98444.78;4911524;29;20783;-53
2022/12/24 03:31:05;;;;;;;9.83;2.13;;;;;;;10.52;92.44;98454.56;4911567;29;20722;-55
2022/12/24 03:33:33;;;;;;;14.60;2.33;;;;;;;10.53;91.60;98467.44;4913130;29;20419;-53
2022/12/24 03:35:59;;;;;;;13.57;2.40;;;;;;;10.54;91.66;98473.50;4909208;29;20296;-53
2022/12/24 03:38:26;;;;;;;13.33;2.57;;;;;;;10.61;88.83;98480.56;4917506;29;20235;-53
2022/12/24 03:40:52;;;;;;;12.00;2.03;;;;;;;10.57;91.54;98473.19;4905292;29;23611;-54
2022/12/24 03:43:19;;;;;;;15.17;2.37;;;;;;;10.60;89.50;98480.72;4919308;29;20315;-54
2022/12/24 03:45:46;;;;;;;13.97;3.00;;;;;;;10.57;89.38;98476.63;4910041;29;20253;-54
2022/12/24 03:48:14;;;;;;;12.77;2.40;;;;;;;10.63;89.28;98480.38;4917246;29;20296;-54
2022/12/24 03:50:40;;;;;;;14.70;2.50;;;;;;;10.55;89.84;98490.81;4913247;29;20252;-52
2022/12/24 03:53:07;;;;;;;13.13;2.10;;;;;;;10.42;90.66;98499.03;4913237;29;20269;-54
2022/12/24 03:55:33;;;;;;;18.70;3.27;;;;;;;10.38;90.13;98497.66;4910688;29;20645;-54
2022/12/24 03:58:00;;;;;;;18.50;2.63;;;;;;;10.43;88.33;98491.06;4911613;28;20243;-54
2022/12/24 04:00:26;;;;;;;10.10;2.47;;;;;;;10.47;87.84;98487.16;4916552;29;20704;-53
2022/12/24 04:02:53;;;;;;;16.80;2.97;;;;;;;10.53;87.36;98483.09;4911251;29;20247;-54
2022/12/24 04:05:21;;;;;;;13.53;2.03;;;;;;;10.62;84.27;98494.41;4902823;29;20287;-53
2022/12/24 04:07:48;;;;;;;11.00;2.00;;;;;;;10.57;87.21;98494.88;4908537;29;20239;-52
2022/12/24 04:10:15;;;;;;;15.53;2.20;;;;;;;10.57;86.27;98504.53;4910208;29;20300;-54
2022/12/24 04:12:42;;;;;;;17.03;2.83;;;;;;;10.64;85.41;98495.06;4911514;29;20236;-53
2022/12/24 04:15:10;;;;;;;14.20;2.20;;;;;;;10.63;86.32;98496.88;4914995;29;20237;-55
2022/12/24 04:17:36;;;;;;;15.37;2.40;;;;;;;10.71;83.21;98503.13;4913748;29;20669;-55
2022/12/24 04:20:04;;;;;;;13.53;2.13;;;;;;;10.80;81.80;98498.75;4917796;29;20244;-55
2022/12/24 04:22:31;;;;;;;13.03;2.00;;;;;;;10.81;82.17;98500.38;4915326;29;20252;-53
2022/12/24 04:24:58;;;;;;;16.67;2.20;;;;;;;10.81;81.70;98495.16;4908755;29;20680;-54
2022/12/24 04:27:25;;;;;;;11.10;1.93;;;;;;;10.89;82.02;98516.09;4914555;29;20831;-54
2022/12/24 04:29:51;;;;;;;13.40;2.30;;;;;;;10.92;81.17;98521.00;4912082;29;20240;-54
2022/12/24 04:32:18;;;;;;;13.43;2.30;;;;;;;10.87;81.84;98515.44;5197267;23;20233;-58
2022/12/24 04:34:44;;;;;;;14.50;2.63;;;;;;;10.77;83.15;98518.97;4982719;28;20820;-59
2022/12/24 04:37:11;;;;;;;15.73;2.17;;;;;;;10.73;82.29;98512.41;4987017;28;20694;-59
2022/12/24 04:39:38;;;;;;;15.03;2.50;;;;;;;10.78;83.18;98522.41;4982584;28;20241;-58
2022/12/24 04:42:05;;;;;;;9.87;1.83;;;;;;;10.68;85.97;98517.28;4967368;28;20293;-58
2022/12/24 04:44:32;;;;;;;7.87;1.50;;;;;;;10.58;86.46;98519.22;4955463;28;20451;-59
2022/12/24 04:46:58;;;;;;;11.50;2.00;;;;;;;10.52;86.16;98531.06;4953132;28;20234;-59
2022/12/24 04:49:25;;;;;;;11.77;2.00;;;;;;;10.45;87.09;98541.31;4955522;28;20260;-58
2022/12/24 04:51:51;;;;;;;12.30;2.40;;;;;;;10.53;85.14;98542.34;4952093;28;20254;-59
2022/12/24 04:54:18;;;;;;;11.03;1.70;;;;;;;10.45;87.55;98551.75;4955632;28;20233;-59
2022/12/24 04:56:46;;;;;;;10.20;2.23;;;;;;;10.65;82.02;98542.88;4955295;28;20638;-59
2022/12/24 04:59:12;;;;;;;12.77;2.00;;;;;;;10.69;81.51;98542.41;4955968;28;20290;-59
2022/12/24 05:01:39;;;;;;;11.40;2.30;;;;;;;10.67;82.92;98552.19;4950616;28;20241;-60
2022/12/24 05:04:06;;;;;;;15.23;2.80;;;;;;;10.61;85.17;98539.75;4952437;28;20239;-59
2022/12/24 05:06:33;;;;;;;10.27;1.87;;;;;;;10.55;84.63;98538.59;4954285;28;20745;-59
2022/12/24 05:09:00;;;;;;;10.70;2.47;;;;;;;10.51;85.72;98539.84;4952171;28;20243;-60
2022/12/24 05:11:27;;;;;;;14.43;2.00;;;;;;;10.50;85.76;98543.44;4955764;28;20247;-59
2022/12/24 05:13:55;;;;;;;12.40;2.27;;;;;;;10.44;85.10;98539.66;4951147;28;20384;-58
2022/12/24 05:16:23;;;;;;;13.97;2.17;;;;;;;10.42;86.45;98541.59;4955614;28;20227;-58
2022/12/24 05:18:51;;;;;;;15.37;2.30;;;;;;;10.41;86.23;98536.53;4952557;28;20222;-59
2022/12/24 05:21:20;;;;;;;8.83;1.80;;;;;;;10.47;85.50;98534.13;4955609;28;20235;-59
2022/12/24 05:26:35;;;;;;;8.40;2.00;;;;;;;10.50;85.39;98547.84;4953035;28;20226;-59
2022/12/24 05:29:06;;;;;;;12.10;1.80;;;;;;;10.50;84.44;98533.00;4957330;28;20762;-59
2022/12/24 05:31:34;;;;;;;16.80;2.33;;;;;;;10.52;84.23;98532.88;4955285;28;20297;-59
2022/12/24 05:34:02;;;;;;;11.40;2.63;;;;;;;10.52;84.65;98530.25;4955740;28;20251;-59
2022/12/24 05:36:29;;;;;;;10.93;1.90;;;;;;;10.53;83.75;98532.69;4953804;28;20230;-59
2022/12/24 05:38:55;;;;;;;10.03;2.47;;;;;;;10.56;83.49;98534.19;4951335;28;20237;-59
2022/12/24 05:41:22;;;;;;;14.90;2.10;;;;;;;10.54;84.14;98533.53;4957693;28;20241;-59
2022/12/24 05:43:49;;;;;;;14.27;2.07;;;;;;;10.52;82.68;98538.09;4952410;28;20771;-60
2022/12/24 05:46:18;;;;;;;16.07;2.40;;;;;;;10.52;83.59;98541.50;4954957;28;20231;-58
2022/12/24 05:48:46;;;;;;;12.93;2.17;;;;;;;10.58;82.63;98547.91;4953287;28;20235;-59
2022/12/24 05:51:14;;;;;;;14.13;2.63;;;;;;;10.61;82.62;98537.13;4953338;28;20271;-59
2022/12/24 05:53:41;;;;;;;12.57;2.20;;;;;;;10.55;84.19;98540.38;4951620;28;20635;-58
2022/12/24 05:56:09;;;;;;;15.13;2.20;;;;;;;10.58;81.67;98545.31;4954750;28;20923;-59
2022/12/24 05:58:36;;;;;;;20.00;3.07;;;;;;;10.52;84.47;98545.91;4953716;28;20233;-60
2022/12/24 06:01:04;;;;;;;12.47;2.70;;;;;;;10.45;85.09;98550.91;4958232;28;20314;-58
2022/12/24 06:03:33;;;;;;;33.37;13.20;;;;;;;10.42;85.90;98539.00;4958298;28;20663;-60
2022/12/24 06:06:01;;;;;;;13.93;3.77;;;;;;;10.36;86.49;98541.34;4950185;28;20301;-58
2022/12/24 06:08:28;;;;;;;12.73;2.97;;;;;;;10.25;86.85;98537.19;4951833;28;20289;-58
2022/12/24 06:10:56;;;;;;;15.83;2.70;;;;;;;10.24;86.29;98528.53;4946930;28;20239;-59
2022/12/24 06:13:23;;;;;;;15.50;1.97;;;;;;;10.25;85.38;98542.41;4953059;28;20739;-58
2022/12/24 06:15:50;;;;;;;11.33;2.30;;;;;;;10.25;85.54;98551.03;4958176;28;20221;-59
2022/12/24 06:18:16;;;;;;;10.40;2.07;;;;;;;10.21;85.80;98556.72;4955436;28;20238;-58
2022/12/24 06:20:44;;;;;;;12.40;2.23;;;;;;;10.23;82.32;98552.97;4952811;28;20234;-59
2022/12/24 06:23:11;;;;;;;11.80;2.03;;;;;;;10.25;82.64;98558.06;4953548;28;20230;-59
2022/12/24 06:25:37;;;;;;;12.63;2.20;;;;;;;10.26;83.75;98567.53;4951210;28;20242;-59
2022/12/24 06:28:04;;;;;;;18.17;2.53;;;;;;;10.24;83.33;98549.41;4957130;28;20237;-59
2022/12/24 06:30:31;;;;;;;13.27;2.80;;;;;;;10.19;83.49;98543.81;4958052;28;20249;-59
2022/12/24 06:32:57;;;;;;;15.80;2.50;;;;;;;10.22;82.90;98553.16;4953165;28;20630;-58
2022/12/24 06:35:24;;;;;;;14.73;2.20;;;;;;;10.21;84.06;98564.56;4957829;28;20653;-59
2022/12/24 06:37:52;;;;;;;17.87;2.90;;;;;;;10.17;84.73;98562.25;4956597;28;20316;-59
2022/12/24 06:40:18;;;;;;;16.50;2.40;;;;;;;10.21;82.21;98570.56;4956950;28;20226;-59
2022/12/24 06:42:45;;;;;;;10.00;2.83;;;;;;;10.23;82.63;98565.22;4953637;28;20243;-59
2022/12/24 06:45:11;;;;;;;30.70;5.80;;;;;;;10.24;83.51;98572.06;4956946;28;20234;-59
2022/12/24 06:47:38;;;;;;;11.80;2.60;;;;;;;10.25;82.30;98589.38;4957504;28;20289;-58
2022/12/24 06:50:06;;;;;;;72.77;28.67;;;;;;;10.37;81.11;98579.50;4957001;28;20702;-58
2022/12/24 06:52:32;;;;;;;39.07;14.37;;;;;;;10.42;81.21;98574.69;4956161;28;20592;-58
2022/12/24 06:55:00;;;;;;;17.97;6.43;;;;;;;10.36;81.29;98590.91;4954732;28;20233;-59
2022/12/24 06:57:27;;;;;;;16.10;2.53;;;;;;;10.44;79.68;98585.81;4958546;28;20241;-59
2022/12/24 06:59:53;;;;;;;15.00;4.33;;;;;;;10.39;81.83;98598.44;4959625;28;20245;-58
2022/12/24 07:02:20;;;;;;;15.10;3.10;;;;;;;10.42;79.95;98600.78;4959606;28;20765;-59
2022/12/24 07:04:47;;;;;;;13.40;4.70;;;;;;;10.40;81.54;98608.78;4957443;28;20241;-59
2022/12/24 07:07:13;;;;;;;16.80;2.77;;;;;;;10.39;80.75;98614.09;4959206;28;20253;-59
2022/12/24 07:09:40;;;;;;;14.00;2.70;;;;;;;10.38;82.23;98610.69;4957492;28;20242;-59
2022/12/24 07:12:08;;;;;;;17.60;3.30;;;;;;;10.30;81.96;98611.41;4959244;28;20281;-59
2022/12/24 07:14:35;;;;;;;18.23;2.93;;;;;;;10.34;81.70;98609.34;4953996;28;20795;-60
2022/12/24 07:17:01;;;;;;;20.07;2.63;;;;;;;10.32;80.91;98629.53;4956678;28;20249;-58
2022/12/24 07:19:28;;;;;;;12.90;3.10;;;;;;;10.31;82.24;98627.91;4957240;28;20602;-59
2022/12/24 07:21:54;;;;;;;16.13;2.50;;;;;;;10.31;81.44;98620.06;4953151;28;20293;-60
2022/12/24 07:24:21;;;;;;;16.80;3.30;;;;;;;10.37;81.59;98614.25;4957344;28;20230;-60
2022/12/24 07:26:47;;;;;;;15.63;2.90;;;;;;;10.31;82.15;98630.53;4953068;28;20234;-58
2022/12/24 07:29:15;;;;;;;19.63;3.70;;;;;;;10.39;80.68;98630.63;4956190;28;20301;-60
2022/12/24 07:31:42;;;;;;;16.07;3.33;;;;;;;10.34;81.91;98625.81;4957719;28;20238;-59
2022/12/24 07:34:08;;;;;;;16.60;3.03;;;;;;;10.28;82.23;98615.97;4955197;28;20655;-58
2022/12/24 07:36:35;;;;;;;15.50;2.83;;;;;;;10.38;81.03;98636.78;4953316;28;20313;-61
2022/12/24 07:39:02;;;;;;;13.43;3.80;;;;;;;10.41;80.65;98633.06;4956627;28;20246;-60
2022/12/24 07:41:28;;;;;;;15.80;2.70;;;;;;;10.46;79.35;98647.31;4956911;28;20238;-58
2022/12/24 07:43:55;;;;;;;18.00;4.60;;;;;;;10.45;80.91;98635.25;4954427;28;20245;-60
2022/12/24 07:46:23;;;;;;;17.30;3.87;;;;;;;10.42;82.13;98648.59;4957437;28;20344;-59
2022/12/24 07:48:49;;;;;;;14.43;2.33;;;;;;;10.36;82.14;98646.53;4954900;28;20228;-59
2022/12/24 07:51:16;;;;;;;12.03;2.80;;;;;;;10.33;83.04;98639.00;4956695;28;20290;-59
2022/12/24 07:53:46;;;;;;;15.63;2.30;;;;;;;10.31;83.14;98639.16;4953265;28;20611;-59
2022/12/24 07:56:13;;;;;;;16.60;2.87;;;;;;;10.32;81.70;98643.41;4956641;28;20670;-58
2022/12/24 07:58:40;;;;;;;19.07;3.17;;;;;;;10.31;83.81;98654.00;4951266;28;20236;-60
2022/12/24 08:01:07;;;;;;;20.67;3.67;;;;;;;10.33;84.11;98652.06;4957164;28;20572;-59
2022/12/24 08:03:35;;;;;;;13.30;2.30;;;;;;;10.40;81.69;98658.34;4952964;28;20238;-61
2022/12/24 08:06:01;;;;;;;11.13;2.47;;;;;;;10.50;80.04;98660.88;4953790;28;20789;-58
2022/12/24 08:08:28;;;;;;;13.97;2.77;;;;;;;10.52;81.59;98663.34;4956418;28;20710;-60
2022/12/24 08:11:00;;;;;;;19.27;3.00;;;;;;;10.54;83.28;98658.81;4950506;28;20236;-60
2022/12/24 08:13:27;;;;;;;14.87;2.20;;;;;;;10.48;82.32;98666.25;4959303;28;20622;-59
2022/12/24 08:15:54;;;;;;;14.03;2.93;;;;;;;10.50;81.94;98660.88;4953480;28;20428;-61
2022/12/24 08:18:20;;;;;;;24.53;4.73;;;;;;;10.49;81.14;98656.63;4958309;28;20236;-60
2022/12/24 08:20:48;;;;;;;18.13;3.17;;;;;;;10.48;82.90;98645.38;4950285;28;20584;-60
2022/12/24 08:23:15;;;;;;;16.23;3.27;;;;;;;10.48;81.82;98644.56;4956372;28;20238;-59
2022/12/24 08:25:43;;;;;;;13.50;3.07;;;;;;;10.47;82.01;98656.78;4951397;28;20234;-60
2022/12/24 08:28:09;;;;;;;16.53;2.73;;;;;;;10.48;81.31;98668.88;4955022;28;20703;-60
2022/12/24 08:30:36;;;;;;;14.40;3.00;;;;;;;10.44;82.15;98664.91;4954338;28;20752;-61
2022/12/24 08:33:03;;;;;;;15.77;2.53;;;;;;;10.45;81.69;98663.94;4958045;28;20234;-60
2022/12/24 08:35:30;;;;;;;10.03;2.53;;;;;;;10.48;81.45;98661.03;4963171;28;20257;-60
2022/12/24 08:37:57;;;;;;;16.47;2.93;;;;;;;10.63;79.30;98663.09;4953550;28;20699;-60
2022/12/24 08:40:24;;;;;;;11.57;3.00;;;;;;;10.74;79.48;98668.09;4955681;28;20295;-60
2022/12/24 08:42:51;;;;;;;14.63;2.20;;;;;;;10.86;79.95;98663.47;4952938;28;20295;-59
2022/12/24 08:45:18;;;;;;;10.87;2.40;;;;;;;10.91;79.61;98673.44;4954127;28;20637;-60
2022/12/24 08:47:44;;;;;;;13.67;3.00;;;;;;;11.07;76.56;98670.16;4953866;28;20714;-61
2022/12/24 08:50:12;;;;;;;13.20;2.80;;;;;;;10.93;77.82;98672.34;4955630;28;20238;-60
2022/12/24 08:52:39;;;;;;;13.27;2.13;;;;;;;11.00;79.70;98669.94;4950447;28;20228;-61
2022/12/24 08:55:08;;;;;;;13.43;2.40;;;;;;;10.99;79.28;98673.50;4953976;28;20261;-59
2022/12/24 08:57:35;;;;;;;12.97;2.77;;;;;;;10.89;78.04;98689.28;4953734;28;20231;-60
2022/12/24 09:00:02;;;;;;;13.90;2.47;;;;;;;10.91;77.42;98679.50;4954170;28;20235;-60
2022/12/24 09:02:29;;;;;;;18.70;6.70;;;;;;;10.92;78.63;98688.97;4956375;28;20226;-60
2022/12/24 09:04:55;;;;;;;11.23;2.73;;;;;;;10.88;78.96;98681.59;4953615;28;20230;-59
2022/12/24 09:07:22;;;;;;;16.97;3.10;;;;;;;10.87;78.58;98685.16;4956173;28;20240;-60
2022/12/24 09:09:48;;;;;;;21.10;7.17;;;;;;;10.95;79.12;98687.84;4953391;28;20230;-60
2022/12/24 09:12:16;;;;;;;16.27;3.47;;;;;;;10.88;78.52;98690.25;4950611;28;20247;-60
2022/12/24 09:14:43;;;;;;;13.73;2.90;;;;;;;10.94;78.08;98696.66;4952334;28;20233;-60
2022/12/24 09:17:09;;;;;;;16.37;3.33;;;;;;;11.01;78.79;98707.31;4953559;28;20247;-59
2022/12/24 09:19:36;;;;;;;15.90;3.60;;;;;;;11.02;79.42;98715.00;4956156;28;20285;-60
2022/12/24 09:22:02;;;;;;;15.03;3.20;;;;;;;10.88;78.78;98715.53;4958539;28;20239;-59
2022/12/24 09:24:29;;;;;;;14.60;3.27;;;;;;;10.93;78.54;98706.28;4955697;28;20238;-59
2022/12/24 09:26:56;;;;;;;13.73;2.67;;;;;;;10.89;78.44;98718.00;4953337;28;20230;-60
2022/12/24 09:29:25;;;;;;;25.37;8.53;;;;;;;10.95;79.65;98711.34;4954698;28;20297;-60
2022/12/24 09:31:53;;;;;;;13.70;3.33;;;;;;;10.89;81.62;98709.34;4951851;28;20241;-61
2022/12/24 09:34:20;;;;;;;18.63;3.43;;;;;;;10.82;82.08;98716.13;4954633;28;20235;-59
2022/12/24 09:36:47;;;;;;;18.77;3.93;;;;;;;10.92;82.61;98725.53;4953508;28;20235;-59
2022/12/24 09:39:14;;;;;;;10.90;3.10;;;;;;;11.07;80.81;98722.41;4952611;28;20234;-60
2022/12/24 09:41:51;;;;;;;11.53;2.13;;;;;;;11.25;80.59;98724.97;4950191;28;20734;-59
2022/12/24 09:44:31;;;;;;;12.30;2.53;;;;;;;11.29;79.88;98725.47;4954733;28;20231;-60
2022/12/24 09:47:01;;;;;;;13.10;2.90;;;;;;;11.45;79.03;98732.63;4954777;28;20239;-60
2022/12/24 09:49:39;;;;;;;21.53;2.97;;;;;;;11.56;77.65;98732.34;4953583;28;20811;-59
2022/12/24 09:52:09;;;;;;;13.53;2.73;;;;;;;11.62;77.80;98723.91;4954087;28;20239;-61
2022/12/24 09:54:41;;;;;;;16.90;3.70;;;;;;;11.43;78.37;98735.38;4953428;28;20243;-60
2022/12/24 09:57:15;;;;;;;16.53;2.87;;;;;;;11.41;79.07;98736.50;4954970;28;20247;-60
2022/12/24 09:59:45;;;;;;;18.93;2.80;;;;;;;11.40;78.27;98729.63;4951035;28;20236;-60
2022/12/24 10:02:15;;;;;;;15.13;2.20;;;;;;;11.29;78.23;98733.31;4961133;28;20325;-60
2022/12/24 10:04:43;;;;;;;13.33;4.13;;;;;;;11.18;79.24;98745.63;4957070;28;20231;-60
2022/12/24 10:07:23;;;;;;;16.40;2.50;;;;;;;11.12;79.30;98742.81;4967298;28;20237;-59
2022/12/24 10:09:58;;;;;;;18.60;4.27;;;;;;;11.08;79.66;98747.53;4960977;28;20230;-60
2022/12/24 10:12:32;;;;;;;10.63;2.10;;;;;;;11.13;79.52;98755.72;4962567;28;20246;-60
2022/12/24 10:15:10;;;;;;;14.33;2.60;;;;;;;11.22;79.43;98761.84;4961108;28;20246;-60
2022/12/24 10:17:50;;;;;;;18.43;2.97;;;;;;;11.22;78.91;98767.88;4957207;28;20272;-59
2022/12/24 10:20:32;;;;;;;15.17;2.57;;;;;;;11.25;79.56;98772.00;4958968;28;20505;-60
2022/12/24 10:23:06;;;;;;;16.50;2.88;;;;;;;11.10;80.24;98779.56;4956165;28;20916;-60
2022/12/24 10:25:41;;;;;;;16.33;3.03;;;;;;;11.04;79.49;98770.53;4962449;28;20230;-60
2022/12/24 10:28:15;;;;;;;16.40;2.93;;;;;;;11.13;80.52;98757.53;4958206;28;20234;-60
2022/12/24 10:30:46;;;;;;;15.03;3.23;;;;;;;11.15;80.77;98756.38;4957737;28;20688;-60
2022/12/24 10:33:19;;;;;;;14.33;3.13;;;;;;;11.23;80.60;98751.22;4961300;28;20591;-60
2022/12/24 10:35:50;;;;;;;15.43;3.77;;;;;;;11.29;80.61;98760.28;4955852;28;20232;-60
2022/12/24 10:38:17;;;;;;;15.03;3.07;;;;;;;11.19;80.18;98773.41;4959194;28;20243;-60
2022/12/24 10:40:47;;;;;;;15.33;3.53;;;;;;;11.23;80.49;98763.50;4956970;28;20228;-60
2022/12/24 10:43:16;;;;;;;18.93;2.63;;;;;;;11.24;80.02;98754.69;4961158;28;20287;-60
2022/12/24 10:45:47;;;;;;;12.60;2.60;;;;;;;11.10;80.74;98750.81;4958459;28;20298;-60
2022/12/24 10:48:23;;;;;;;15.33;2.60;;;;;;;11.08;80.62;98755.38;4957451;28;20231;-59
2022/12/24 10:50:56;;;;;;;16.53;3.30;;;;;;;11.20;80.70;98761.19;4956136;28;20235;-60
2022/12/24 10:53:28;;;;;;;13.87;4.03;;;;;;;11.25;80.33;98756.31;4960786;28;20294;-60
2022/12/24 10:56:03;;;;;;;16.50;2.60;;;;;;;11.24;81.35;98762.53;4960983;28;20670;-60
2022/12/24 10:58:30;;;;;;;16.10;2.73;;;;;;;11.22;80.33;98767.88;4962302;28;20265;-60
2022/12/24 11:00:58;;;;;;;11.93;3.17;;;;;;;11.20;80.79;98769.03;4956176;28;20320;-60
2022/12/24 11:03:30;;;;;;;12.17;2.53;;;;;;;11.18;80.67;98771.75;4961493;28;20248;-61
2022/12/24 11:06:02;;;;;;;26.33;10.93;;;;;;;11.18;80.95;98774.38;4956671;28;20315;-60
2022/12/24 11:08:29;;;;;;;14.47;4.27;;;;;;;11.19;81.59;98768.19;4962837;28;20230;-61
2022/12/24 11:10:58;;;;;;;14.00;2.60;;;;;;;11.18;81.57;98755.28;4960230;28;20274;-60
2022/12/24 11:13:28;;;;;;;13.83;2.83;;;;;;;11.19;80.53;98767.38;4958267;28;20301;-60
2022/12/24 11:16:05;;;;;;;19.53;2.67;;;;;;;11.21;81.45;98774.06;4954331;28;20289;-61
2022/12/24 11:18:34;;;;;;;15.73;3.13;;;;;;;11.26;80.37;98762.34;4956836;28;20325;-60
2022/12/24 11:21:02;;;;;;;12.40;2.53;;;;;;;11.37;81.22;98776.00;4958003;28;20234;-61
2022/12/24 11:23:29;;;;;;;13.43;2.90;;;;;;;11.49;79.54;98770.53;4958342;28;20250;-60
2022/12/24 11:25:57;;;;;;;15.13;3.07;;;;;;;11.55;77.28;98764.69;4953548;28;20228;-60
2022/12/24 11:28:26;;;;;;;19.07;2.93;;;;;;;11.56;79.36;98771.56;4961129;28;20231;-60
2022/12/24 11:30:59;;;;;;;13.37;2.80;;;;;;;11.71;77.55;98781.44;4954266;28;20227;-60
2022/12/24 11:33:29;;;;;;;17.03;2.87;;;;;;;11.64;78.32;98776.03;4955838;28;20226;-60
2022/12/24 11:36:04;;;;;;;16.53;2.90;;;;;;;11.55;79.12;98776.94;4957130;28;20623;-61
2022/12/24 11:38:33;;;;;;;14.97;2.57;;;;;;;11.70;78.50;98775.41;4953673;28;20261;-60
2022/12/24 11:41:03;;;;;;;14.17;2.53;;;;;;;11.48;78.27;98768.91;4954962;28;20237;-61
2022/12/24 11:43:44;;;;;;;18.20;2.50;;;;;;;11.66;77.52;98759.19;4957667;28;20298;-59